Time;durP1;ratioP1;P1;durP2;ratioP2;P2;SDS_P1;SDS_P2;PMS_P1;PMS_P2;Temp;Humidity;BMP_temperature;BMP_pressure;BME280_temperature;BME280_humidity;BME280_pressure;Samples;Min_cycle;Max_cycle;Signal;HPM_P1;HPM_P2
2022/10/15 00:01:53;;;;;;;;;;;;;;;15.24;87.87;99850.47;4132843;28;20417;-62
2022/10/15 00:03:57;;;;;;;;;;;;;;;15.34;87.30;99844.19;4152645;28;20294;-62
2022/10/15 00:06:03;;;;;;;;;;;;;;;15.40;87.34;99834.53;4148454;28;19921;-62
2022/10/15 00:08:06;;;;;;;;;;;;;;;15.31;87.50;99849.47;4158237;28;19932;-62
2022/10/15 00:10:09;;;;;;;;;;;;;;;15.36;87.39;99837.19;4132823;28;19922;-62
2022/10/15 00:12:12;;;;;;;;;;;;;;;15.39;87.06;99835.41;4132735;28;19922;-62
2022/10/15 00:14:14;;;;;;;;;;;;;;;15.41;86.86;99831.88;4149284;28;19921;-61
2022/10/15 00:16:18;;;;;;;;;;;;;;;15.36;87.17;99839.81;4150112;28;19921;-61
2022/10/15 00:18:21;;;;;;;;;;;;;;;15.26;87.87;99842.56;4150072;28;19925;-61
2022/10/15 00:20:24;;;;;;;;;;;;;;;15.33;87.59;99838.97;4153553;28;20011;-61
2022/10/15 00:22:27;;;;;;;;;;;;;;;15.29;87.80;99846.03;4154290;28;19983;-61
2022/10/15 00:24:30;;;;;;;;;;;;;;;15.34;87.66;99838.94;4156122;28;19929;-61
2022/10/15 00:26:33;;;;;;;;;;;;;;;15.38;87.79;99841.56;4150026;28;19929;-61
2022/10/15 00:28:36;;;;;;;;;;;;;;;15.33;88.14;99833.75;4149906;28;19922;-62
2022/10/15 00:30:39;;;;;;;;;;;;;;;15.43;87.29;99840.56;4132899;28;19956;-61
2022/10/15 00:32:41;;;;;;;;;;;;;;;15.31;88.03;99836.38;4132422;28;19922;-62
2022/10/15 00:34:44;;;;;;;;;;;;;;;15.23;88.14;99840.91;4151097;28;19925;-62
2022/10/15 00:36:49;;;;;;;;;;;;;;;15.21;88.79;99839.19;4141040;28;19992;-62
2022/10/15 00:38:52;;;;;;;;;;;;;;;15.26;88.79;99840.84;4148628;28;19921;-61
2022/10/15 00:40:54;;;;;;;;;;;;;;;15.28;88.23;99838.19;4132218;28;20302;-62
2022/10/15 00:42:58;;;;;;;;;;;;;;;15.33;88.06;99842.47;4148498;28;19933;-61
2022/10/15 00:45:00;;;;;;;;;;;;;;;15.33;88.51;99832.00;4147693;28;19964;-61
2022/10/15 00:47:06;;;;;;;;;;;;;;;15.39;88.14;99840.63;4149640;28;19921;-61
2022/10/15 00:49:13;;;;;;;;;;;;;;;15.39;87.63;99836.28;4147778;28;19921;-62
2022/10/15 00:51:17;;;;;;;;;;;;;;;15.33;88.06;99829.38;4144490;28;19926;-62
2022/10/15 00:53:22;;;;;;;;;;;;;;;15.36;88.16;99834.56;4161099;28;19921;-62
2022/10/15 00:55:28;;;;;;;;;;;;;;;15.29;88.71;99832.09;4165944;28;20367;-61
2022/10/15 00:57:31;;;;;;;;;;;;;;;15.32;88.86;99830.25;4148148;28;19921;-61
2022/10/15 00:59:36;;;;;;;;;;;;;;;15.45;88.28;99828.31;4164671;28;19921;-62
2022/10/15 01:01:39;;;;;;;;;;;;;;;15.39;87.87;99830.16;4148138;28;19921;-61
2022/10/15 01:03:42;;;;;;;;;;;;;;;15.26;88.45;99829.47;4162558;28;19921;-62
2022/10/15 01:05:46;;;;;;;;;;;;;;;15.34;88.38;99825.00;4148091;28;19928;-62
2022/10/15 01:07:49;;;;;;;;;;;;;;;15.35;88.59;99824.97;4148080;28;19928;-62
2022/10/15 01:09:53;;;;;;;;;;;;;;;15.33;88.38;99820.66;4165702;28;20416;-61
2022/10/15 01:11:56;;;;;;;;;;;;;;;15.47;88.04;99820.44;4146790;28;19921;-62
2022/10/15 01:14:02;;;;;;;;;;;;;;;15.39;88.42;99817.06;4147139;28;19922;-62
2022/10/15 01:16:07;;;;;;;;;;;;;;;15.31;88.93;99817.19;4153954;28;19921;-62
2022/10/15 01:18:14;;;;;;;;;;;;;;;15.40;88.42;99814.41;4165661;28;20032;-62
2022/10/15 01:20:34;;;;;;;;;;;;;;;15.35;88.43;99822.34;4164741;28;20101;-62
2022/10/15 01:22:43;;;;;;;;;;;;;;;15.30;89.00;99818.06;4144863;28;19960;-62
2022/10/15 01:24:57;;;;;;;;;;;;;;;15.33;88.75;99818.03;4131020;28;20387;-62
2022/10/15 01:27:14;;;;;;;;;;;;;;;15.33;88.66;99816.28;4131733;28;20308;-62
2022/10/15 01:29:27;;;;;;;;;;;;;;;15.23;89.46;99821.69;4130598;28;19926;-62
2022/10/15 01:31:36;;;;;;;;;;;;;;;15.35;89.00;99822.34;4149085;28;19921;-62
2022/10/15 01:33:42;;;;;;;;;;;;;;;15.29;88.86;99817.22;4130753;28;19922;-61
2022/10/15 01:35:48;;;;;;;;;;;;;;;15.33;89.62;99818.91;4135805;28;19921;-62
2022/10/15 01:37:54;;;;;;;;;;;;;;;15.41;89.17;99812.69;4138867;28;19922;-62
2022/10/15 01:39:59;;;;;;;;;;;;;;;15.41;88.70;99810.06;4156365;28;19921;-62
2022/10/15 01:42:04;;;;;;;;;;;;;;;15.39;88.97;99814.44;4145793;28;19921;-62
2022/10/15 01:44:08;;;;;;;;;;;;;;;15.39;88.56;99812.72;4130652;28;19929;-62
2022/10/15 01:46:23;;;;;;;;;;;;;;;15.38;89.20;99812.75;4131253;28;19968;-62
2022/10/15 01:48:41;;;;;;;;;;;;;;;15.37;89.27;99804.00;4131366;28;19933;-62
2022/10/15 01:50:46;;;;;;;;;;;;;;;15.36;89.08;99807.50;4126268;28;19922;-62
2022/10/15 01:52:50;;;;;;;;;;;;;;;15.31;89.51;99815.44;4148592;28;20398;-61
2022/10/15 01:54:53;;;;;;;;;;;;;;;15.29;89.79;99809.38;4130619;28;19972;-61
2022/10/15 01:56:58;;;;;;;;;;;;;;;15.28;89.87;99807.63;4131225;28;19922;-61
2022/10/15 01:59:01;;;;;;;;;;;;;;;15.32;89.76;99796.22;4147683;28;19983;-61
2022/10/15 02:01:05;;;;;;;;;;;;;;;15.33;89.56;99805.81;4131032;28;19922;-61
2022/10/15 02:03:10;;;;;;;;;;;;;;;15.37;89.52;99804.00;4147172;28;19988;-62
2022/10/15 02:05:16;;;;;;;;;;;;;;;15.38;89.80;99810.13;4139521;28;20450;-61
2022/10/15 02:07:21;;;;;;;;;;;;;;;15.42;89.71;99807.44;4139193;28;19925;-61
2022/10/15 02:09:29;;;;;;;;;;;;;;;15.42;89.45;99799.56;4163677;28;20303;-61
2022/10/15 02:11:38;;;;;;;;;;;;;;;15.43;89.60;99795.19;4147177;28;19921;-62
2022/10/15 02:13:49;;;;;;;;;;;;;;;15.40;89.40;99801.31;4144515;28;19925;-61
2022/10/15 02:15:56;;;;;;;;;;;;;;;15.44;89.53;99800.41;4122821;28;19929;-61
2022/10/15 02:18:03;;;;;;;;;;;;;;;15.49;88.94;99800.31;4148397;28;19933;-61
2022/10/15 02:20:11;;;;;;;;;;;;;;;15.47;89.48;99805.56;4144548;28;20371;-61
2022/10/15 02:22:17;;;;;;;;;;;;;;;15.44;89.39;99799.53;4130696;28;19921;-61
2022/10/15 02:24:21;;;;;;;;;;;;;;;15.45;89.22;99799.50;4129947;28;20375;-61
2022/10/15 02:26:25;;;;;;;;;;;;;;;15.53;89.06;99802.00;4114734;28;19922;-61
2022/10/15 02:28:29;;;;;;;;;;;;;;;15.44;89.50;99794.31;4114624;28;19973;-61
2022/10/15 02:30:33;;;;;;;;;;;;;;;15.41;89.67;99807.44;4130895;28;19981;-61
2022/10/15 02:32:37;;;;;;;;;;;;;;;15.49;89.24;99810.78;4130806;28;20380;-61
2022/10/15 02:34:40;;;;;;;;;;;;;;;15.60;89.08;99808.88;4145449;28;20415;-61
2022/10/15 02:36:43;;;;;;;;;;;;;;;15.48;89.12;99806.47;4140939;28;19921;-61
2022/10/15 02:38:48;;;;;;;;;;;;;;;15.46;89.08;99805.59;4146959;28;19932;-61
2022/10/15 02:40:51;;;;;;;;;;;;;;;15.48;89.03;99801.22;4130884;28;19922;-61
2022/10/15 02:42:55;;;;;;;;;;;;;;;15.47;89.59;99807.34;4153367;28;20520;-62
2022/10/15 02:44:57;;;;;;;;;;;;;;;15.47;89.77;99802.09;4155368;28;19964;-61
2022/10/15 02:47:00;;;;;;;;;;;;;;;15.55;89.04;99810.72;4164263;28;19932;-61
2022/10/15 02:49:03;;;;;;;;;;;;;;;15.52;89.34;99802.88;4166630;28;20020;-62
2022/10/15 02:51:06;;;;;;;;;;;;;;;15.48;89.37;99803.84;4150162;28;19935;-62
2022/10/15 02:53:08;;;;;;;;;;;;;;;15.54;89.43;99807.22;4149870;28;20422;-62
2022/10/15 02:55:12;;;;;;;;;;;;;;;15.53;89.44;99802.84;4149806;28;19922;-62
2022/10/15 02:57:15;;;;;;;;;;;;;;;15.62;88.87;99807.06;4166582;28;19921;-62
2022/10/15 02:59:20;;;;;;;;;;;;;;;15.65;88.79;99814.91;4148700;28;19925;-61
2022/10/15 03:01:24;;;;;;;;;;;;;;;15.61;88.92;99815.84;4166194;28;19971;-62
2022/10/15 03:03:27;;;;;;;;;;;;;;;15.52;88.86;99813.34;4132951;28;19926;-62
2022/10/15 03:05:30;;;;;;;;;;;;;;;15.54;89.51;99814.22;4166460;28;19924;-62
2022/10/15 03:07:33;;;;;;;;;;;;;;;15.49;89.51;99813.41;4133753;28;19922;-61
2022/10/15 03:09:36;;;;;;;;;;;;;;;15.48;89.84;99823.03;4133909;28;20283;-61
2022/10/15 03:11:40;;;;;;;;;;;;;;;15.47;90.08;99820.44;4133677;28;20435;-61
2022/10/15 03:13:43;;;;;;;;;;;;;;;15.50;90.06;99817.75;4137073;28;20007;-62
2022/10/15 03:15:47;;;;;;;;;;;;;;;15.51;89.89;99824.75;4149805;28;20434;-61
2022/10/15 03:17:50;;;;;;;;;;;;;;;15.49;89.98;99821.28;4133430;28;19929;-61
2022/10/15 03:19:53;;;;;;;;;;;;;;;15.46;90.41;99819.59;4117831;28;19922;-61
2022/10/15 03:21:56;;;;;;;;;;;;;;;15.53;90.48;99823.81;4134281;28;19928;-61
2022/10/15 03:24:01;;;;;;;;;;;;;;;15.59;90.11;99829.84;4140594;28;19921;-62
2022/10/15 03:26:04;;;;;;;;;;;;;;;15.61;90.11;99823.69;4149873;28;19984;-62
2022/10/15 03:28:08;;;;;;;;;;;;;;;15.62;89.65;99821.94;4148763;28;19921;-62
2022/10/15 03:30:14;;;;;;;;;;;;;;;15.66;89.80;99815.75;4165044;28;20008;-62
2022/10/15 03:32:17;;;;;;;;;;;;;;;15.67;89.47;99820.97;4145257;28;19921;-62
2022/10/15 03:34:20;;;;;;;;;;;;;;;15.66;89.71;99811.38;4166116;28;20431;-62
2022/10/15 03:36:23;;;;;;;;;;;;;;;15.68;89.62;99821.81;4144439;28;19922;-62
2022/10/15 03:38:26;;;;;;;;;;;;;;;15.69;89.22;99820.94;4154368;28;20225;-61
2022/10/15 03:40:29;;;;;;;;;;;;;;;15.71;89.13;99822.66;4165888;28;19921;-61
2022/10/15 03:42:42;;;;;;;;;;;;;;;15.70;89.38;99825.31;4133360;28;20443;-62
2022/10/15 03:44:47;;;;;;;;;;;;;;;15.67;89.26;99834.06;4145298;28;19933;-62
2022/10/15 03:46:53;;;;;;;;;;;;;;;15.69;89.37;99837.53;4141768;28;20379;-62
2022/10/15 03:48:59;;;;;;;;;;;;;;;15.67;89.41;99831.44;4165722;28;19991;-62
2022/10/15 03:51:01;;;;;;;;;;;;;;;15.70;89.25;99830.53;4133076;28;19922;-62
2022/10/15 03:53:04;;;;;;;;;;;;;;;15.68;89.28;99835.81;4145752;28;19922;-62
2022/10/15 03:55:08;;;;;;;;;;;;;;;15.69;89.66;99837.53;4154085;28;19922;-62
2022/10/15 03:57:11;;;;;;;;;;;;;;;15.74;89.38;99833.97;4165695;28;19921;-62
2022/10/15 03:59:19;;;;;;;;;;;;;;;15.65;89.60;99834.97;4136186;28;19972;-62
2022/10/15 04:01:31;;;;;;;;;;;;;;;15.64;89.69;99842.00;4135337;28;19963;-61
2022/10/15 04:03:36;;;;;;;;;;;;;;;15.63;89.88;99837.63;4149588;28;19925;-62
2022/10/15 04:05:38;;;;;;;;;;;;;;;15.68;90.19;99827.94;4132517;28;20005;-62
2022/10/15 04:07:44;;;;;;;;;;;;;;;15.69;89.62;99828.81;4132935;28;19953;-62
2022/10/15 04:09:52;;;;;;;;;;;;;;;15.69;89.72;99844.53;4132943;28;19922;-62
2022/10/15 04:12:01;;;;;;;;;;;;;;;15.67;90.03;99841.94;4116623;28;20414;-62
2022/10/15 04:14:04;;;;;;;;;;;;;;;15.67;90.02;99841.94;4142723;28;20354;-61
2022/10/15 04:16:08;;;;;;;;;;;;;;;15.72;90.17;99844.47;4148727;28;20383;-62
2022/10/15 04:18:12;;;;;;;;;;;;;;;15.70;89.97;99852.34;4138227;28;19975;-62
2022/10/15 04:20:15;;;;;;;;;;;;;;;15.69;90.17;99858.47;4165181;28;19992;-62
2022/10/15 04:22:19;;;;;;;;;;;;;;;15.70;90.40;99864.59;4165404;28;19928;-62
2022/10/15 04:24:26;;;;;;;;;;;;;;;15.70;90.21;99865.47;4131927;28;19921;-62
2022/10/15 04:26:29;;;;;;;;;;;;;;;15.66;90.39;99868.16;4134149;28;19922;-64
2022/10/15 04:28:34;;;;;;;;;;;;;;;15.71;90.52;99876.81;4132373;28;19957;-62
2022/10/15 04:30:38;;;;;;;;;;;;;;;15.75;90.55;99872.38;4150101;28;19922;-62
2022/10/15 04:32:43;;;;;;;;;;;;;;;15.75;90.49;99867.16;4148714;28;19929;-62
2022/10/15 04:34:48;;;;;;;;;;;;;;;15.80;90.05;99867.94;4164192;28;19943;-61
2022/10/15 04:36:52;;;;;;;;;;;;;;;15.76;90.08;99874.97;4140590;28;19933;-61
2022/10/15 04:38:56;;;;;;;;;;;;;;;15.75;90.40;99880.25;4132350;28;19929;-61
2022/10/15 04:41:16;;;;;;;;;;;;;;;15.69;90.25;99886.44;4138010;28;19957;-62
2022/10/15 04:43:27;;;;;;;;;;;;;;;15.74;90.72;99886.38;4164001;28;19953;-62
2022/10/15 04:45:35;;;;;;;;;;;;;;;15.77;90.28;99886.31;4132344;28;19928;-62
2022/10/15 04:47:38;;;;;;;;;;;;;;;15.78;90.24;99886.31;4132354;28;19921;-62
2022/10/15 04:49:48;;;;;;;;;;;;;;;15.81;90.07;99885.41;4123030;28;19964;-62
2022/10/15 04:52:29;;;;;;;;;;;;;;;15.74;90.12;99886.38;4157536;28;19928;-63
2022/10/15 04:54:33;;;;;;;;;;;;;;;15.77;90.09;99896.81;4131240;28;19921;-62
2022/10/15 04:56:38;;;;;;;;;;;;;;;15.80;89.94;99891.53;4132234;28;20020;-63
2022/10/15 04:58:42;;;;;;;;;;;;;;;15.81;90.19;99891.53;4129125;28;19926;-62
2022/10/15 05:00:44;;;;;;;;;;;;;;;15.82;90.00;99887.16;4140398;28;20034;-62
2022/10/15 05:03:09;;;;;;;;;;;;;;;15.84;89.81;99898.47;4124719;28;19922;-62
2022/10/15 05:05:20;;;;;;;;;;;;;;;15.84;89.40;99894.13;4148196;28;20020;-62
2022/10/15 05:07:31;;;;;;;;;;;;;;;15.86;89.54;99905.41;4132064;28;19921;-61
2022/10/15 05:09:34;;;;;;;;;;;;;;;15.85;89.69;99905.44;4147760;28;20008;-62
2022/10/15 05:11:39;;;;;;;;;;;;;;;15.85;89.07;99897.59;4148268;28;19960;-62
2022/10/15 05:13:46;;;;;;;;;;;;;;;15.78;89.44;99904.66;4147337;28;20045;-61
2022/10/15 05:15:49;;;;;;;;;;;;;;;15.82;89.91;99902.88;4135230;28;19952;-61
2022/10/15 05:17:53;;;;;;;;;;;;;;;15.82;89.82;99905.50;4164304;28;19921;-62
2022/10/15 05:19:57;;;;;;;;;;;;;;;15.78;89.52;99904.66;4115699;28;20020;-62
2022/10/15 05:22:04;;;;;;;;;;;;;;;15.76;90.15;99903.81;4131999;28;19932;-62
2022/10/15 05:24:08;;;;;;;;;;;;;;;15.74;89.83;99904.72;4134348;28;19972;-62
2022/10/15 05:26:43;;;;;;;;;;;;;;;15.74;90.10;99909.97;4148090;28;20357;-62
2022/10/15 05:28:46;;;;;;;;;;;;;;;15.71;90.04;99911.75;4164217;28;20020;-62
2022/10/15 05:31:03;;;;;;;;;;;;;;;15.69;90.24;99912.66;4141940;28;19929;-61
2022/10/15 05:33:05;;;;;;;;;;;;;;;15.67;90.47;99910.06;4138260;28;19925;-62
2022/10/15 05:35:08;;;;;;;;;;;;;;;15.67;90.33;99915.31;4142157;28;19925;-61
2022/10/15 05:37:31;;;;;;;;;;;;;;;15.65;90.33;99924.97;4147853;28;19921;-61
2022/10/15 05:39:34;;;;;;;;;;;;;;;15.66;90.69;99918.81;4131933;28;19929;-61
2022/10/15 05:41:37;;;;;;;;;;;;;;;15.71;90.44;99916.09;4148345;28;19952;-61
2022/10/15 05:43:39;;;;;;;;;;;;;;;15.73;90.42;99919.59;4133397;28;19921;-61
2022/10/15 05:45:56;;;;;;;;;;;;;;;15.74;90.44;99928.31;4142886;28;19921;-60
2022/10/15 05:47:59;;;;;;;;;;;;;;;15.75;90.03;99943.16;4141335;28;20375;-61
2022/10/15 05:50:02;;;;;;;;;;;;;;;15.70;90.38;99948.47;4153015;28;19925;-61
2022/10/15 05:52:15;;;;;;;;;;;;;;;15.66;90.65;99944.16;4142071;28;19975;-60
2022/10/15 05:54:54;;;;;;;;;;;;;;;15.62;90.98;99956.41;4157670;28;20409;-60
2022/10/15 05:56:57;;;;;;;;;;;;;;;15.64;90.94;99959.91;4152738;28;19944;-60
2022/10/15 05:59:00;;;;;;;;;;;;;;;15.61;91.22;99957.31;4139480;28;19922;-63
2022/10/15 06:01:04;;;;;;;;;;;;;;;15.64;91.21;99959.91;4157636;28;19971;-66
2022/10/15 06:03:10;;;;;;;;;;;;;;;15.70;91.12;99961.56;4138117;28;20026;-65
2022/10/15 06:05:13;;;;;;;;;;;;;;;15.69;90.97;99970.31;4159977;28;19976;-66
2022/10/15 06:07:16;;;;;;;;;;;;;;;15.72;90.66;99972.88;4153894;28;19956;-67
2022/10/15 06:09:18;;;;;;;;;;;;;;;15.77;90.51;99972.81;4148185;28;19976;-65
2022/10/15 06:11:22;;;;;;;;;;;;;;;15.80;90.69;99986.78;4134735;28;19957;-62
2022/10/15 06:13:25;;;;;;;;;;;;;;;15.83;90.39;99988.50;4153590;28;19979;-62
2022/10/15 06:15:33;;;;;;;;;;;;;;;15.87;90.18;99992.78;4159508;28;19925;-63
2022/10/15 06:17:36;;;;;;;;;;;;;;;15.88;89.85;99986.66;4163954;28;20011;-62
2022/10/15 06:19:39;;;;;;;;;;;;;;;15.91;89.96;99986.59;4163154;28;19924;-63
2022/10/15 06:21:41;;;;;;;;;;;;;;;15.92;89.94;99985.72;4142974;28;20427;-63
2022/10/15 06:23:44;;;;;;;;;;;;;;;15.94;89.37;99988.31;4162245;28;19936;-63
2022/10/15 06:25:48;;;;;;;;;;;;;;;15.97;89.32;99991.75;4152390;28;20003;-63
2022/10/15 06:27:52;;;;;;;;;;;;;;;15.96;89.34;99997.00;4131473;28;19972;-63
2022/10/15 06:29:54;;;;;;;;;;;;;;;15.94;89.26;99991.81;4156653;28;19925;-65
2022/10/15 06:31:57;;;;;;;;;;;;;;;15.96;89.23;99995.28;4133137;28;19969;-64
2022/10/15 06:34:00;;;;;;;;;;;;;;;15.97;89.32;100002.22;4134905;28;19922;-64
2022/10/15 06:36:02;;;;;;;;;;;;;;;15.98;89.12;100003.97;4131853;28;19922;-64
2022/10/15 06:38:05;;;;;;;;;;;;;;;15.97;89.34;100012.72;4160577;28;19921;-64
2022/10/15 06:40:09;;;;;;;;;;;;;;;15.95;89.39;100022.38;4148114;28;19933;-63
2022/10/15 06:42:15;;;;;;;;;;;;;;;15.97;89.07;100011.88;4158000;28;19929;-61
2022/10/15 06:44:23;;;;;;;;;;;;;;;15.97;89.25;100014.50;4143711;28;19953;-61
2022/10/15 06:46:26;;;;;;;;;;;;;;;15.94;89.33;100007.53;4160996;28;19921;-61
2022/10/15 06:48:28;;;;;;;;;;;;;;;15.98;89.23;100011.84;4133126;28;19926;-61
2022/10/15 06:50:31;;;;;;;;;;;;;;;15.95;89.28;100021.53;4156669;28;19921;-61
2022/10/15 06:52:34;;;;;;;;;;;;;;;15.85;89.33;100015.53;4155394;28;20271;-60
2022/10/15 06:54:36;;;;;;;;;;;;;;;15.89;89.58;100030.34;4147360;28;19921;-61
2022/10/15 06:56:40;;;;;;;;;;;;;;;15.95;89.17;100022.38;4130569;28;20303;-61
2022/10/15 06:58:43;;;;;;;;;;;;;;;15.93;89.09;100036.38;4162792;28;19949;-61
2022/10/15 07:00:49;;;;;;;;;;;;;;;15.87;89.07;100040.84;4156396;28;20025;-61
2022/10/15 07:02:51;;;;;;;;;;;;;;;15.84;89.40;100034.78;4141090;28;20295;-61
2022/10/15 07:04:54;;;;;;;;;;;;;;;15.87;89.44;100035.59;4156683;28;19976;-61
2022/10/15 07:06:57;;;;;;;;;;;;;;;15.92;89.50;100037.31;4161566;28;19936;-60
2022/10/15 07:09:04;;;;;;;;;;;;;;;15.93;89.28;100034.66;4133773;28;20398;-61
2022/10/15 07:11:07;;;;;;;;;;;;;;;15.94;89.29;100033.75;4164141;28;19921;-60
2022/10/15 07:13:14;;;;;;;;;;;;;;;15.90;89.29;100039.91;4158163;28;19932;-61
2022/10/15 07:15:17;;;;;;;;;;;;;;;15.94;89.10;100046.00;4156693;28;19921;-61
2022/10/15 07:17:21;;;;;;;;;;;;;;;15.93;89.46;100050.38;4155494;28;20022;-60
2022/10/15 07:19:23;;;;;;;;;;;;;;;15.83;89.60;100052.25;4155705;28;20380;-61
2022/10/15 07:21:26;;;;;;;;;;;;;;;15.84;89.60;100050.50;4156732;28;19932;-61
2022/10/15 07:23:28;;;;;;;;;;;;;;;15.79;89.49;100057.56;4157487;28;19940;-61
2022/10/15 07:25:31;;;;;;;;;;;;;;;15.80;89.49;100067.16;4139993;28;20399;-61
2022/10/15 07:27:34;;;;;;;;;;;;;;;15.80;89.69;100062.78;4156437;28;19976;-61
2022/10/15 07:29:37;;;;;;;;;;;;;;;15.79;89.56;100050.56;4149988;28;19927;-61
2022/10/15 07:31:40;;;;;;;;;;;;;;;15.82;89.42;100066.25;4147900;28;19964;-61
2022/10/15 07:33:44;;;;;;;;;;;;;;;15.84;89.13;100055.75;4149257;28;19927;-61
2022/10/15 07:35:46;;;;;;;;;;;;;;;15.83;89.64;100057.50;4158974;28;20246;-60
2022/10/15 07:37:49;;;;;;;;;;;;;;;15.86;89.31;100052.22;4157671;28;19932;-61
2022/10/15 07:39:52;;;;;;;;;;;;;;;15.88;89.10;100053.03;4149385;28;19926;-60
2022/10/15 07:41:55;;;;;;;;;;;;;;;15.95;89.08;100053.84;4163718;28;19920;-60
2022/10/15 07:44:00;;;;;;;;;;;;;;;16.01;88.80;100053.75;4135917;28;19922;-60
2022/10/15 07:46:03;;;;;;;;;;;;;;;15.99;88.84;100047.66;4166902;28;20405;-61
2022/10/15 07:48:06;;;;;;;;;;;;;;;16.05;88.52;100058.06;4164651;28;20370;-61
2022/10/15 07:50:10;;;;;;;;;;;;;;;16.10;88.30;100063.22;4146118;28;20478;-60
2022/10/15 07:52:13;;;;;;;;;;;;;;;16.08;88.25;100064.13;4151949;28;19931;-61
2022/10/15 07:54:15;;;;;;;;;;;;;;;16.05;88.44;100068.53;4161295;28;19931;-61
2022/10/15 07:56:18;;;;;;;;;;;;;;;16.09;88.50;100076.38;4162722;28;20375;-61
2022/10/15 07:58:21;;;;;;;;;;;;;;;16.11;88.41;100071.97;4141301;28;19976;-61
2022/10/15 08:00:23;;;;;;;;;;;;;;;16.15;88.21;100071.91;4145291;28;19952;-60
2022/10/15 08:02:26;;;;;;;;;;;;;;;16.15;87.70;100064.03;4158721;28;20284;-60
2022/10/15 08:04:29;;;;;;;;;;;;;;;16.12;87.86;100068.44;4160433;28;20012;-61
2022/10/15 08:06:33;;;;;;;;;;;;;;;16.13;88.24;100070.19;4148544;28;19921;-61
2022/10/15 08:08:37;;;;;;;;;;;;;;;16.12;88.18;100073.69;4166206;28;19971;-61
2022/10/15 08:10:39;;;;;;;;;;;;;;;16.02;88.23;100067.75;4164178;28;19929;-61
2022/10/15 08:12:42;;;;;;;;;;;;;;;16.01;88.63;100066.00;4153339;28;19971;-61
2022/10/15 08:14:44;;;;;;;;;;;;;;;16.11;88.33;100069.38;4161750;28;20371;-61
2022/10/15 08:16:47;;;;;;;;;;;;;;;16.17;88.28;100074.50;4166091;28;19928;-62
2022/10/15 08:18:53;;;;;;;;;;;;;;;16.19;88.10;100070.97;4162233;28;19928;-63
2022/10/15 08:20:58;;;;;;;;;;;;;;;16.18;88.11;100074.47;4152043;28;19925;-62
2022/10/15 08:23:02;;;;;;;;;;;;;;;16.27;87.85;100083.97;4163328;28;19921;-63
2022/10/15 08:25:05;;;;;;;;;;;;;;;16.31;87.79;100077.78;4156992;28;19975;-61
2022/10/15 08:27:08;;;;;;;;;;;;;;;16.36;87.50;100083.81;4162836;28;19944;-60
2022/10/15 08:29:12;;;;;;;;;;;;;;;16.45;87.29;100082.81;4144295;28;19921;-60
2022/10/15 08:31:14;;;;;;;;;;;;;;;16.37;87.70;100085.56;4147060;28;19921;-60
2022/10/15 08:33:17;;;;;;;;;;;;;;;16.45;87.73;100080.19;4162305;28;20497;-61
2022/10/15 08:35:20;;;;;;;;;;;;;;;16.47;87.70;100086.28;4161726;28;19921;-60
2022/10/15 08:37:23;;;;;;;;;;;;;;;16.40;87.94;100085.50;4160162;28;20363;-61
2022/10/15 08:39:27;;;;;;;;;;;;;;;16.48;87.71;100090.63;4160879;28;20393;-60
2022/10/15 08:41:32;;;;;;;;;;;;;;;16.39;87.90;100094.25;4158800;28;19921;-60
2022/10/15 08:43:36;;;;;;;;;;;;;;;16.55;87.83;100092.25;4146823;28;20526;-60
2022/10/15 08:45:43;;;;;;;;;;;;;;;16.50;87.62;100090.59;4145550;28;19921;-61
2022/10/15 08:47:48;;;;;;;;;;;;;;;16.49;87.55;100096.75;4161435;28;19971;-60
2022/10/15 08:49:53;;;;;;;;;;;;;;;16.47;87.82;100098.53;4160862;28;19998;-60
2022/10/15 08:52:03;;;;;;;;;;;;;;;16.45;88.32;100093.28;4144134;28;19928;-60
2022/10/15 08:54:06;;;;;;;;;;;;;;;16.54;87.84;100097.53;4155726;28;19925;-59
2022/10/15 08:56:14;;;;;;;;;;;;;;;16.49;88.27;100096.75;4154481;28;20342;-60
2022/10/15 08:58:20;;;;;;;;;;;;;;;16.43;88.41;100099.44;4157354;28;19967;-60
2022/10/15 09:00:24;;;;;;;;;;;;;;;16.49;88.57;100099.38;4158116;28;19921;-60
2022/10/15 09:02:30;;;;;;;;;;;;;;;16.56;88.32;100101.00;4163175;28;19932;-60
2022/10/15 09:04:37;;;;;;;;;;;;;;;16.51;88.07;100094.97;4151772;28;19921;-61
2022/10/15 09:06:40;;;;;;;;;;;;;;;16.56;87.90;100101.00;4145133;28;20366;-61
2022/10/15 09:08:48;;;;;;;;;;;;;;;16.67;87.46;100099.06;4161987;28;19921;-61
2022/10/15 09:10:52;;;;;;;;;;;;;;;16.62;87.30;100100.91;4138153;28;19968;-61
2022/10/15 09:12:59;;;;;;;;;;;;;;;16.64;87.58;100096.50;4158016;28;20005;-61
2022/10/15 09:15:03;;;;;;;;;;;;;;;16.66;87.37;100097.34;4154525;28;19921;-61
2022/10/15 09:17:07;;;;;;;;;;;;;;;16.67;87.00;100099.06;4161564;28;20353;-61
2022/10/15 09:19:13;;;;;;;;;;;;;;;16.71;87.13;100100.75;4150581;28;21184;-61
2022/10/15 09:21:16;;;;;;;;;;;;;;;16.70;86.94;100095.53;4157353;28;19929;-61
2022/10/15 09:23:22;;;;;;;;;;;;;;;16.65;87.18;100095.59;4159967;28;20209;-63
2022/10/15 09:25:25;;;;;;;;;;;;;;;16.58;87.46;100093.97;4155670;28;19921;-61
2022/10/15 09:27:34;;;;;;;;;;;;;;;16.64;87.18;100095.63;4162778;28;19921;-62
2022/10/15 09:29:41;;;;;;;;;;;;;;;16.58;87.58;100096.59;4155746;28;19925;-61
2022/10/15 09:31:47;;;;;;;;;;;;;;;16.55;87.58;100094.03;4159939;28;19928;-61
2022/10/15 09:33:52;;;;;;;;;;;;;;;16.47;87.55;100096.78;4154190;28;20038;-61
2022/10/15 09:36:05;;;;;;;;;;;;;;;16.53;87.27;100095.81;4158578;28;20391;-61
2022/10/15 09:38:23;;;;;;;;;;;;;;;16.48;87.45;100095.00;4140627;28;19921;-61
2022/10/15 09:40:29;;;;;;;;;;;;;;;16.42;87.71;100097.75;4159809;28;19986;-61
2022/10/15 09:42:35;;;;;;;;;;;;;;;16.53;87.25;100101.94;4159122;28;19921;-61
2022/10/15 09:44:40;;;;;;;;;;;;;;;16.36;87.67;100104.81;4123018;28;19972;-62
2022/10/15 09:46:44;;;;;;;;;;;;;;;16.55;87.06;100110.63;4144963;28;19921;-62
2022/10/15 09:48:50;;;;;;;;;;;;;;;16.50;87.23;100109.84;4155668;28;19925;-62
2022/10/15 09:50:56;;;;;;;;;;;;;;;16.51;87.09;100108.06;4157117;28;19928;-62
2022/10/15 09:53:04;;;;;;;;;;;;;;;16.48;87.66;100109.00;4161354;28;19928;-62
2022/10/15 09:55:10;;;;;;;;;;;;;;;16.37;87.65;100111.78;4158540;28;19936;-62
2022/10/15 09:57:14;;;;;;;;;;;;;;;16.29;88.12;100116.28;4163749;28;19921;-62
2022/10/15 09:59:17;;;;;;;;;;;;;;;16.35;88.41;100117.94;4150463;28;20295;-64
2022/10/15 10:01:22;;;;;;;;;;;;;;;16.46;88.17;100112.56;4151673;28;19967;-65
2022/10/15 10:03:25;;;;;;;;;;;;;;;16.39;88.63;100120.50;4156342;28;20020;-64
2022/10/15 10:05:29;;;;;;;;;;;;;;;16.47;88.49;100120.41;4155170;28;19929;-62
2022/10/15 10:07:33;;;;;;;;;;;;;;;16.51;88.46;100118.56;4159151;28;19921;-64
2022/10/15 10:09:38;;;;;;;;;;;;;;;16.67;87.70;100120.06;4158743;28;19966;-67
2022/10/15 10:11:47;;;;;;;;;;;;;;;16.62;87.77;100123.63;4138384;28;19925;-67
2022/10/15 10:13:51;;;;;;;;;;;;;;;16.64;87.98;100124.50;4137358;28;20016;-66
2022/10/15 10:15:54;;;;;;;;;;;;;;;16.58;88.19;100120.22;4155131;28;20361;-70
2022/10/15 10:18:04;;;;;;;;;;;;;;;16.66;88.06;100126.22;4141492;28;19940;-66
2022/10/15 10:20:15;;;;;;;;;;;;;;;16.56;87.91;100119.38;4156692;28;19925;-64
2022/10/15 10:22:19;;;;;;;;;;;;;;;16.65;88.03;100129.72;4154299;28;19925;-66
2022/10/15 10:24:27;;;;;;;;;;;;;;;16.65;88.25;100124.47;4152939;28;19929;-64
2022/10/15 10:26:34;;;;;;;;;;;;;;;16.64;88.10;100133.22;4129242;28;20009;-65
2022/10/15 10:28:40;;;;;;;;;;;;;;;16.71;87.90;100127.00;4156581;28;20461;-66
2022/10/15 10:30:52;;;;;;;;;;;;;;;16.69;88.03;100122.66;4154292;28;20345;-65
2022/10/15 10:32:56;;;;;;;;;;;;;;;16.74;88.14;100126.09;4158267;28;20354;-65
2022/10/15 10:35:01;;;;;;;;;;;;;;;16.87;87.93;100124.13;4157298;28;19960;-65
2022/10/15 10:37:05;;;;;;;;;;;;;;;16.84;88.23;100121.56;4159747;28;19921;-64
2022/10/15 10:39:14;;;;;;;;;;;;;;;16.77;87.72;100125.16;4157966;28;19975;-65
2022/10/15 10:41:17;;;;;;;;;;;;;;;16.83;87.57;100127.69;4141984;28;19921;-66
2022/10/15 10:43:23;;;;;;;;;;;;;;;16.88;87.71;100126.75;4158080;28;20275;-66
2022/10/15 10:45:26;;;;;;;;;;;;;;;16.97;87.13;100125.72;4157549;28;19983;-65
2022/10/15 10:47:37;;;;;;;;;;;;;;;16.86;87.07;100122.38;4156024;28;19921;-66
2022/10/15 10:49:40;;;;;;;;;;;;;;;16.96;87.23;100117.88;4160161;28;19992;-66